sensor_id;sensor_type;location;lat;lon;timestamp;P1;durP1;ratioP1;P2;durP2;ratioP2
22439;SDS011;11387;51.612;7.210;2024-01-15T00:00:02;87.95;;;34.83;;
22439;SDS011;11387;51.612;7.210;2024-01-15T00:02:28;83.55;;;33.38;;
22439;SDS011;11387;51.612;7.210;2024-01-15T00:04:51;94.55;;;37.55;;
22439;SDS011;11387;51.612;7.210;2024-01-15T00:07:15;83.97;;;34.35;;
22439;SDS011;11387;51.612;7.210;2024-01-15T00:09:39;79.60;;;33.72;;
22439;SDS011;11387;51.612;7.210;2024-01-15T00:12:03;87.43;;;35.33;;
22439;SDS011;11387;51.612;7.210;2024-01-15T00:14:27;86.82;;;36.45;;
22439;SDS011;11387;51.612;7.210;2024-01-15T00:16:51;85.65;;;33.83;;
22439;SDS011;11387;51.612;7.210;2024-01-15T00:19:18;88.15;;;36.47;;
22439;SDS011;11387;51.612;7.210;2024-01-15T00:21:42;90.45;;;34.85;;
22439;SDS011;11387;51.612;7.210;2024-01-15T00:24:05;82.32;;;34.92;;
22439;SDS011;11387;51.612;7.210;2024-01-15T00:26:29;99.75;;;37.22;;
22439;SDS011;11387;51.612;7.210;2024-01-15T00:28:53;95.95;;;36.38;;
22439;SDS011;11387;51.612;7.210;2024-01-15T00:31:17;90.95;;;36.90;;
22439;SDS011;11387;51.612;7.210;2024-01-15T00:33:41;83.78;;;34.10;;
22439;SDS011;11387;51.612;7.210;2024-01-15T00:36:06;93.97;;;35.00;;
22439;SDS011;11387;51.612;7.210;2024-01-15T00:38:30;85.57;;;36.47;;
22439;SDS011;11387;51.612;7.210;2024-01-15T00:40:54;84.72;;;33.53;;
22439;SDS011;11387;51.612;7.210;2024-01-15T00:43:18;85.78;;;34.65;;
22439;SDS011;11387;51.612;7.210;2024-01-15T00:45:41;92.65;;;36.63;;
22439;SDS011;11387;51.612;7.210;2024-01-15T00:48:05;101.18;;;38.15;;
22439;SDS011;11387;51.612;7.210;2024-01-15T00:50:30;85.05;;;36.08;;
22439;SDS011;11387;51.612;7.210;2024-01-15T00:52:55;89.75;;;35.72;;
22439;SDS011;11387;51.612;7.210;2024-01-15T00:55:19;89.10;;;37.13;;
22439;SDS011;11387;51.612;7.210;2024-01-15T00:57:42;81.32;;;33.95;;
22439;SDS011;11387;51.612;7.210;2024-01-15T01:00:06;82.07;;;35.13;;
22439;SDS011;11387;51.612;7.210;2024-01-15T01:02:31;80.43;;;34.65;;
22439;SDS011;11387;51.612;7.210;2024-01-15T01:05:05;90.40;;;35.60;;
22439;SDS011;11387;51.612;7.210;2024-01-15T01:07:29;83.82;;;34.40;;
22439;SDS011;11387;51.612;7.210;2024-01-15T01:09:54;81.88;;;32.38;;
22439;SDS011;11387;51.612;7.210;2024-01-15T01:12:18;89.55;;;31.90;;
22439;SDS011;11387;51.612;7.210;2024-01-15T01:14:42;78.90;;;32.30;;
22439;SDS011;11387;51.612;7.210;2024-01-15T01:17:05;75.55;;;31.20;;
22439;SDS011;11387;51.612;7.210;2024-01-15T01:19:29;75.15;;;31.30;;
22439;SDS011;11387;51.612;7.210;2024-01-15T01:21:53;76.47;;;30.92;;
22439;SDS011;11387;51.612;7.210;2024-01-15T01:24:16;87.35;;;29.98;;
22439;SDS011;11387;51.612;7.210;2024-01-15T01:26:41;77.32;;;31.45;;
22439;SDS011;11387;51.612;7.210;2024-01-15T01:29:04;73.50;;;30.90;;
22439;SDS011;11387;51.612;7.210;2024-01-15T01:31:28;77.35;;;30.83;;
22439;SDS011;11387;51.612;7.210;2024-01-15T01:33:51;69.95;;;29.75;;
22439;SDS011;11387;51.612;7.210;2024-01-15T01:36:15;81.00;;;29.08;;
22439;SDS011;11387;51.612;7.210;2024-01-15T01:38:39;73.88;;;28.98;;
22439;SDS011;11387;51.612;7.210;2024-01-15T01:41:03;72.20;;;28.20;;
22439;SDS011;11387;51.612;7.210;2024-01-15T01:43:28;71.25;;;27.55;;
22439;SDS011;11387;51.612;7.210;2024-01-15T01:46:05;67.80;;;25.60;;
22439;SDS011;11387;51.612;7.210;2024-01-15T01:48:30;68.35;;;25.63;;
22439;SDS011;11387;51.612;7.210;2024-01-15T01:50:54;58.67;;;24.85;;
22439;SDS011;11387;51.612;7.210;2024-01-15T01:53:20;62.90;;;25.63;;
22439;SDS011;11387;51.612;7.210;2024-01-15T01:55:45;66.47;;;27.25;;
22439;SDS011;11387;51.612;7.210;2024-01-15T01:58:09;56.55;;;24.90;;
22439;SDS011;11387;51.612;7.210;2024-01-15T02:00:34;68.85;;;26.35;;
22439;SDS011;11387;51.612;7.210;2024-01-15T02:02:59;69.13;;;26.65;;
22439;SDS011;11387;51.612;7.210;2024-01-15T02:05:23;63.38;;;26.98;;
22439;SDS011;11387;51.612;7.210;2024-01-15T02:07:46;59.08;;;25.50;;
22439;SDS011;11387;51.612;7.210;2024-01-15T02:10:10;54.35;;;24.15;;
22439;SDS011;11387;51.612;7.210;2024-01-15T02:12:34;58.13;;;24.80;;
22439;SDS011;11387;51.612;7.210;2024-01-15T02:14:57;55.30;;;25.23;;
22439;SDS011;11387;51.612;7.210;2024-01-15T02:17:22;61.92;;;24.52;;
22439;SDS011;11387;51.612;7.210;2024-01-15T02:19:46;60.60;;;24.85;;
22439;SDS011;11387;51.612;7.210;2024-01-15T02:22:10;56.67;;;25.15;;
22439;SDS011;11387;51.612;7.210;2024-01-15T02:24:34;54.92;;;25.40;;
22439;SDS011;11387;51.612;7.210;2024-01-15T02:26:58;54.47;;;22.65;;
22439;SDS011;11387;51.612;7.210;2024-01-15T02:29:22;59.22;;;24.27;;
22439;SDS011;11387;51.612;7.210;2024-01-15T02:31:46;55.72;;;24.98;;
22439;SDS011;11387;51.612;7.210;2024-01-15T02:34:10;60.72;;;26.10;;
22439;SDS011;11387;51.612;7.210;2024-01-15T02:36:33;52.38;;;24.60;;
22439;SDS011;11387;51.612;7.210;2024-01-15T02:38:57;54.15;;;25.48;;
22439;SDS011;11387;51.612;7.210;2024-01-15T02:41:22;55.42;;;25.10;;
22439;SDS011;11387;51.612;7.210;2024-01-15T02:43:45;55.33;;;25.38;;
22439;SDS011;11387;51.612;7.210;2024-01-15T02:46:09;57.88;;;25.25;;
22439;SDS011;11387;51.612;7.210;2024-01-15T02:48:32;58.58;;;26.90;;
22439;SDS011;11387;51.612;7.210;2024-01-15T02:50:57;53.72;;;25.10;;
22439;SDS011;11387;51.612;7.210;2024-01-15T02:53:20;52.65;;;24.70;;
22439;SDS011;11387;51.612;7.210;2024-01-15T02:55:43;47.97;;;24.73;;
22439;SDS011;11387;51.612;7.210;2024-01-15T02:58:08;59.22;;;24.77;;
22439;SDS011;11387;51.612;7.210;2024-01-15T03:00:32;58.03;;;24.05;;
22439;SDS011;11387;51.612;7.210;2024-01-15T03:02:56;46.47;;;23.42;;
22439;SDS011;11387;51.612;7.210;2024-01-15T03:05:19;45.65;;;22.88;;
22439;SDS011;11387;51.612;7.210;2024-01-15T03:07:43;55.75;;;23.13;;
22439;SDS011;11387;51.612;7.210;2024-01-15T03:10:07;58.60;;;24.65;;
22439;SDS011;11387;51.612;7.210;2024-01-15T03:12:31;59.83;;;21.60;;
22439;SDS011;11387;51.612;7.210;2024-01-15T03:14:56;56.10;;;22.83;;
22439;SDS011;11387;51.612;7.210;2024-01-15T03:17:19;48.38;;;22.00;;
22439;SDS011;11387;51.612;7.210;2024-01-15T03:19:43;52.97;;;21.52;;
22439;SDS011;11387;51.612;7.210;2024-01-15T03:22:07;46.53;;;22.63;;
22439;SDS011;11387;51.612;7.210;2024-01-15T03:24:31;55.72;;;23.88;;
22439;SDS011;11387;51.612;7.210;2024-01-15T03:26:55;59.22;;;24.90;;
22439;SDS011;11387;51.612;7.210;2024-01-15T03:29:18;52.67;;;23.23;;
22439;SDS011;11387;51.612;7.210;2024-01-15T03:31:43;65.18;;;24.13;;
22439;SDS011;11387;51.612;7.210;2024-01-15T03:34:06;56.42;;;23.48;;
22439;SDS011;11387;51.612;7.210;2024-01-15T03:36:30;54.20;;;23.88;;
22439;SDS011;11387;51.612;7.210;2024-01-15T03:38:54;51.97;;;23.50;;
22439;SDS011;11387;51.612;7.210;2024-01-15T03:41:17;58.63;;;23.30;;
22439;SDS011;11387;51.612;7.210;2024-01-15T03:43:41;55.60;;;23.45;;
22439;SDS011;11387;51.612;7.210;2024-01-15T03:46:04;60.95;;;22.38;;
22439;SDS011;11387;51.612;7.210;2024-01-15T03:48:29;50.75;;;22.23;;
22439;SDS011;11387;51.612;7.210;2024-01-15T03:50:53;58.45;;;23.25;;
22439;SDS011;11387;51.612;7.210;2024-01-15T03:53:16;56.50;;;21.50;;
22439;SDS011;11387;51.612;7.210;2024-01-15T03:55:40;60.60;;;21.30;;
22439;SDS011;11387;51.612;7.210;2024-01-15T03:58:03;55.13;;;22.75;;
22439;SDS011;11387;51.612;7.210;2024-01-15T04:00:27;41.22;;;19.30;;
22439;SDS011;11387;51.612;7.210;2024-01-15T04:02:50;39.42;;;18.00;;
22439;SDS011;11387;51.612;7.210;2024-01-15T04:05:15;41.92;;;18.65;;
22439;SDS011;11387;51.612;7.210;2024-01-15T04:07:39;51.08;;;19.20;;
22439;SDS011;11387;51.612;7.210;2024-01-15T04:10:03;46.55;;;19.92;;
22439;SDS011;11387;51.612;7.210;2024-01-15T04:12:27;46.20;;;21.50;;
22439;SDS011;11387;51.612;7.210;2024-01-15T04:14:50;55.03;;;20.33;;
22439;SDS011;11387;51.612;7.210;2024-01-15T04:17:17;52.60;;;21.23;;
22439;SDS011;11387;51.612;7.210;2024-01-15T04:19:43;46.05;;;19.73;;
22439;SDS011;11387;51.612;7.210;2024-01-15T04:22:08;50.75;;;20.92;;
22439;SDS011;11387;51.612;7.210;2024-01-15T04:24:32;51.03;;;21.38;;
22439;SDS011;11387;51.612;7.210;2024-01-15T04:26:55;49.53;;;19.38;;
22439;SDS011;11387;51.612;7.210;2024-01-15T04:29:19;38.90;;;18.23;;
22439;SDS011;11387;51.612;7.210;2024-01-15T04:31:42;38.22;;;17.10;;
22439;SDS011;11387;51.612;7.210;2024-01-15T04:34:06;44.35;;;19.02;;
22439;SDS011;11387;51.612;7.210;2024-01-15T04:36:30;35.22;;;16.67;;
22439;SDS011;11387;51.612;7.210;2024-01-15T04:38:55;32.72;;;16.27;;
22439;SDS011;11387;51.612;7.210;2024-01-15T04:41:18;43.97;;;17.08;;
22439;SDS011;11387;51.612;7.210;2024-01-15T04:43:42;32.47;;;15.25;;
22439;SDS011;11387;51.612;7.210;2024-01-15T04:46:06;41.00;;;16.55;;
22439;SDS011;11387;51.612;7.210;2024-01-15T04:48:29;35.22;;;16.20;;
22439;SDS011;11387;51.612;7.210;2024-01-15T04:50:53;31.83;;;14.10;;
22439;SDS011;11387;51.612;7.210;2024-01-15T04:53:16;40.65;;;15.43;;
22439;SDS011;11387;51.612;7.210;2024-01-15T04:55:41;28.88;;;15.48;;
22439;SDS011;11387;51.612;7.210;2024-01-15T04:58:06;33.92;;;15.25;;
22439;SDS011;11387;51.612;7.210;2024-01-15T05:00:29;34.85;;;15.48;;
22439;SDS011;11387;51.612;7.210;2024-01-15T05:02:53;35.25;;;15.32;;
22439;SDS011;11387;51.612;7.210;2024-01-15T05:05:18;31.08;;;15.57;;
22439;SDS011;11387;51.612;7.210;2024-01-15T05:07:41;39.63;;;15.85;;
22439;SDS011;11387;51.612;7.210;2024-01-15T05:10:06;34.65;;;18.02;;
22439;SDS011;11387;51.612;7.210;2024-01-15T05:12:46;39.97;;;19.20;;
22439;SDS011;11387;51.612;7.210;2024-01-15T05:15:09;48.75;;;18.55;;
22439;SDS011;11387;51.612;7.210;2024-01-15T05:17:33;32.47;;;18.23;;
22439;SDS011;11387;51.612;7.210;2024-01-15T05:19:56;34.90;;;19.70;;
22439;SDS011;11387;51.612;7.210;2024-01-15T05:22:19;36.92;;;18.75;;
22439;SDS011;11387;51.612;7.210;2024-01-15T05:24:43;39.88;;;18.73;;
22439;SDS011;11387;51.612;7.210;2024-01-15T05:27:07;38.45;;;20.30;;
22439;SDS011;11387;51.612;7.210;2024-01-15T05:29:32;39.25;;;18.10;;
22439;SDS011;11387;51.612;7.210;2024-01-15T05:31:56;39.25;;;18.38;;
22439;SDS011;11387;51.612;7.210;2024-01-15T05:34:23;35.08;;;17.65;;
22439;SDS011;11387;51.612;7.210;2024-01-15T05:36:47;32.80;;;16.95;;
22439;SDS011;11387;51.612;7.210;2024-01-15T05:39:10;33.90;;;17.33;;
22439;SDS011;11387;51.612;7.210;2024-01-15T05:41:34;33.25;;;16.52;;
22439;SDS011;11387;51.612;7.210;2024-01-15T05:43:57;33.10;;;16.05;;
22439;SDS011;11387;51.612;7.210;2024-01-15T05:46:22;35.67;;;16.30;;
22439;SDS011;11387;51.612;7.210;2024-01-15T05:48:47;34.47;;;16.70;;
22439;SDS011;11387;51.612;7.210;2024-01-15T05:51:12;36.67;;;17.55;;
22439;SDS011;11387;51.612;7.210;2024-01-15T05:53:35;35.47;;;17.23;;
22439;SDS011;11387;51.612;7.210;2024-01-15T05:56:02;47.25;;;15.75;;
22439;SDS011;11387;51.612;7.210;2024-01-15T05:58:26;26.60;;;13.45;;
22439;SDS011;11387;51.612;7.210;2024-01-15T06:00:50;31.63;;;13.18;;
22439;SDS011;11387;51.612;7.210;2024-01-15T06:03:15;26.25;;;13.50;;
22439;SDS011;11387;51.612;7.210;2024-01-15T06:05:38;20.40;;;11.13;;
22439;SDS011;11387;51.612;7.210;2024-01-15T06:08:03;28.10;;;10.98;;
22439;SDS011;11387;51.612;7.210;2024-01-15T06:10:26;22.10;;;10.48;;
22439;SDS011;11387;51.612;7.210;2024-01-15T06:12:50;20.52;;;10.13;;
22439;SDS011;11387;51.612;7.210;2024-01-15T06:15:13;22.30;;;9.73;;
22439;SDS011;11387;51.612;7.210;2024-01-15T06:17:37;15.93;;;9.07;;
22439;SDS011;11387;51.612;7.210;2024-01-15T06:20:02;23.38;;;10.45;;
22439;SDS011;11387;51.612;7.210;2024-01-15T06:22:26;15.52;;;8.52;;
22439;SDS011;11387;51.612;7.210;2024-01-15T06:24:50;22.92;;;9.65;;
22439;SDS011;11387;51.612;7.210;2024-01-15T06:27:13;18.90;;;10.15;;
22439;SDS011;11387;51.612;7.210;2024-01-15T06:29:37;22.10;;;10.15;;
22439;SDS011;11387;51.612;7.210;2024-01-15T06:32:01;24.30;;;11.18;;
22439;SDS011;11387;51.612;7.210;2024-01-15T06:34:24;25.38;;;12.20;;
22439;SDS011;11387;51.612;7.210;2024-01-15T06:36:49;26.80;;;11.77;;
22439;SDS011;11387;51.612;7.210;2024-01-15T06:39:13;28.58;;;11.48;;
22439;SDS011;11387;51.612;7.210;2024-01-15T06:41:37;23.83;;;11.48;;
22439;SDS011;11387;51.612;7.210;2024-01-15T06:44:03;24.85;;;11.20;;
22439;SDS011;11387;51.612;7.210;2024-01-15T06:46:27;22.35;;;10.90;;
22439;SDS011;11387;51.612;7.210;2024-01-15T06:48:51;25.45;;;12.35;;
22439;SDS011;11387;51.612;7.210;2024-01-15T06:51:15;28.65;;;12.15;;
22439;SDS011;11387;51.612;7.210;2024-01-15T06:53:40;19.45;;;10.70;;
22439;SDS011;11387;51.612;7.210;2024-01-15T06:56:04;25.42;;;11.68;;
22439;SDS011;11387;51.612;7.210;2024-01-15T06:58:28;23.58;;;11.82;;
22439;SDS011;11387;51.612;7.210;2024-01-15T07:00:51;20.92;;;10.88;;
22439;SDS011;11387;51.612;7.210;2024-01-15T07:03:15;19.15;;;11.68;;
22439;SDS011;11387;51.612;7.210;2024-01-15T07:05:38;24.48;;;12.27;;
22439;SDS011;11387;51.612;7.210;2024-01-15T07:08:02;20.40;;;11.57;;
22439;SDS011;11387;51.612;7.210;2024-01-15T07:10:27;18.35;;;11.45;;
22439;SDS011;11387;51.612;7.210;2024-01-15T07:12:52;23.40;;;12.00;;
22439;SDS011;11387;51.612;7.210;2024-01-15T07:15:16;20.15;;;11.45;;
22439;SDS011;11387;51.612;7.210;2024-01-15T07:17:42;20.77;;;8.88;;
22439;SDS011;11387;51.612;7.210;2024-01-15T07:20:07;15.55;;;9.40;;
22439;SDS011;11387;51.612;7.210;2024-01-15T07:22:31;14.77;;;8.80;;
22439;SDS011;11387;51.612;7.210;2024-01-15T07:24:55;21.50;;;9.57;;
22439;SDS011;11387;51.612;7.210;2024-01-15T07:27:20;16.35;;;8.38;;
22439;SDS011;11387;51.612;7.210;2024-01-15T07:29:44;18.77;;;8.18;;
22439;SDS011;11387;51.612;7.210;2024-01-15T07:32:07;17.27;;;7.40;;
22439;SDS011;11387;51.612;7.210;2024-01-15T07:34:33;17.27;;;7.65;;
22439;SDS011;11387;51.612;7.210;2024-01-15T07:36:56;20.13;;;7.38;;
22439;SDS011;11387;51.612;7.210;2024-01-15T07:39:20;16.45;;;7.68;;
22439;SDS011;11387;51.612;7.210;2024-01-15T07:41:45;21.70;;;7.40;;
22439;SDS011;11387;51.612;7.210;2024-01-15T07:44:12;13.38;;;6.15;;
22439;SDS011;11387;51.612;7.210;2024-01-15T07:46:35;21.80;;;7.68;;
22439;SDS011;11387;51.612;7.210;2024-01-15T07:48:59;15.18;;;6.88;;
22439;SDS011;11387;51.612;7.210;2024-01-15T07:51:23;10.45;;;5.90;;
22439;SDS011;11387;51.612;7.210;2024-01-15T07:53:47;21.88;;;8.52;;
22439;SDS011;11387;51.612;7.210;2024-01-15T07:56:11;14.82;;;6.28;;
22439;SDS011;11387;51.612;7.210;2024-01-15T07:58:34;16.20;;;7.45;;
22439;SDS011;11387;51.612;7.210;2024-01-15T08:00:59;11.85;;;7.40;;
22439;SDS011;11387;51.612;7.210;2024-01-15T08:03:23;16.60;;;8.18;;
22439;SDS011;11387;51.612;7.210;2024-01-15T08:05:46;14.15;;;7.57;;
22439;SDS011;11387;51.612;7.210;2024-01-15T08:08:12;18.30;;;7.63;;
22439;SDS011;11387;51.612;7.210;2024-01-15T08:10:36;15.98;;;8.60;;
22439;SDS011;11387;51.612;7.210;2024-01-15T08:12:59;18.85;;;8.45;;
22439;SDS011;11387;51.612;7.210;2024-01-15T08:15:23;18.63;;;7.95;;
22439;SDS011;11387;51.612;7.210;2024-01-15T08:17:53;16.58;;;6.95;;
22439;SDS011;11387;51.612;7.210;2024-01-15T08:20:17;14.38;;;6.57;;
22439;SDS011;11387;51.612;7.210;2024-01-15T08:22:41;9.15;;;5.03;;
22439;SDS011;11387;51.612;7.210;2024-01-15T08:25:05;9.63;;;5.38;;
22439;SDS011;11387;51.612;7.210;2024-01-15T08:27:29;10.23;;;5.97;;
22439;SDS011;11387;51.612;7.210;2024-01-15T08:29:52;11.02;;;5.80;;
22439;SDS011;11387;51.612;7.210;2024-01-15T08:32:16;11.75;;;6.70;;
22439;SDS011;11387;51.612;7.210;2024-01-15T08:34:42;10.10;;;7.03;;
22439;SDS011;11387;51.612;7.210;2024-01-15T08:37:06;11.38;;;7.47;;
22439;SDS011;11387;51.612;7.210;2024-01-15T08:39:29;14.38;;;8.25;;
22439;SDS011;11387;51.612;7.210;2024-01-15T08:41:53;20.23;;;9.30;;
22439;SDS011;11387;51.612;7.210;2024-01-15T08:44:22;17.38;;;8.93;;
22439;SDS011;11387;51.612;7.210;2024-01-15T08:46:46;13.38;;;8.73;;
22439;SDS011;11387;51.612;7.210;2024-01-15T08:49:10;13.68;;;8.55;;
22439;SDS011;11387;51.612;7.210;2024-01-15T08:51:35;13.63;;;9.55;;
22439;SDS011;11387;51.612;7.210;2024-01-15T08:54:00;13.45;;;8.00;;
22439;SDS011;11387;51.612;7.210;2024-01-15T08:56:24;17.25;;;10.40;;
22439;SDS011;11387;51.612;7.210;2024-01-15T08:58:49;19.25;;;10.18;;
22439;SDS011;11387;51.612;7.210;2024-01-15T09:01:13;15.10;;;9.98;;
22439;SDS011;11387;51.612;7.210;2024-01-15T09:03:36;15.73;;;9.55;;
22439;SDS011;11387;51.612;7.210;2024-01-15T09:06:00;16.55;;;10.82;;
22439;SDS011;11387;51.612;7.210;2024-01-15T09:08:25;17.20;;;10.07;;
22439;SDS011;11387;51.612;7.210;2024-01-15T09:10:49;19.23;;;11.32;;
22439;SDS011;11387;51.612;7.210;2024-01-15T09:13:13;17.92;;;11.02;;
22439;SDS011;11387;51.612;7.210;2024-01-15T09:15:36;18.98;;;12.40;;
22439;SDS011;11387;51.612;7.210;2024-01-15T09:18:00;16.42;;;11.07;;
22439;SDS011;11387;51.612;7.210;2024-01-15T09:20:29;17.40;;;10.02;;
22439;SDS011;11387;51.612;7.210;2024-01-15T09:22:53;17.10;;;10.48;;
22439;SDS011;11387;51.612;7.210;2024-01-15T09:25:18;18.80;;;10.93;;
22439;SDS011;11387;51.612;7.210;2024-01-15T09:27:42;16.98;;;11.13;;
22439;SDS011;11387;51.612;7.210;2024-01-15T09:30:06;20.85;;;11.23;;
22439;SDS011;11387;51.612;7.210;2024-01-15T09:32:34;21.60;;;10.80;;
22439;SDS011;11387;51.612;7.210;2024-01-15T09:34:58;18.45;;;10.70;;
22439;SDS011;11387;51.612;7.210;2024-01-15T09:37:22;18.38;;;9.35;;
22439;SDS011;11387;51.612;7.210;2024-01-15T09:40:06;23.00;;;10.68;;
22439;SDS011;11387;51.612;7.210;2024-01-15T09:42:33;21.45;;;10.63;;
22439;SDS011;11387;51.612;7.210;2024-01-15T09:44:58;19.33;;;9.90;;
22439;SDS011;11387;51.612;7.210;2024-01-15T09:47:23;13.93;;;8.65;;
22439;SDS011;11387;51.612;7.210;2024-01-15T09:49:48;14.82;;;9.60;;
22439;SDS011;11387;51.612;7.210;2024-01-15T09:52:12;12.52;;;7.78;;
22439;SDS011;11387;51.612;7.210;2024-01-15T09:54:37;14.23;;;7.25;;
22439;SDS011;11387;51.612;7.210;2024-01-15T09:57:02;16.98;;;8.60;;
22439;SDS011;11387;51.612;7.210;2024-01-15T09:59:28;14.05;;;6.63;;
22439;SDS011;11387;51.612;7.210;2024-01-15T10:01:53;12.05;;;6.50;;
22439;SDS011;11387;51.612;7.210;2024-01-15T10:04:20;11.98;;;6.78;;
22439;SDS011;11387;51.612;7.210;2024-01-15T10:06:44;14.45;;;6.60;;
22439;SDS011;11387;51.612;7.210;2024-01-15T10:09:10;13.90;;;6.80;;
22439;SDS011;11387;51.612;7.210;2024-01-15T10:11:39;12.13;;;5.57;;
22439;SDS011;11387;51.612;7.210;2024-01-15T10:14:03;11.95;;;5.93;;
22439;SDS011;11387;51.612;7.210;2024-01-15T10:16:29;13.63;;;6.50;;
22439;SDS011;11387;51.612;7.210;2024-01-15T10:18:53;15.98;;;6.53;;
22439;SDS011;11387;51.612;7.210;2024-01-15T10:21:17;10.95;;;6.72;;
22439;SDS011;11387;51.612;7.210;2024-01-15T10:23:42;12.65;;;6.78;;
22439;SDS011;11387;51.612;7.210;2024-01-15T10:26:06;13.40;;;7.53;;
22439;SDS011;11387;51.612;7.210;2024-01-15T10:28:30;12.60;;;7.90;;
22439;SDS011;11387;51.612;7.210;2024-01-15T10:30:57;10.77;;;7.00;;
22439;SDS011;11387;51.612;7.210;2024-01-15T10:33:24;10.45;;;7.13;;
22439;SDS011;11387;51.612;7.210;2024-01-15T10:35:48;11.02;;;7.45;;
22439;SDS011;11387;51.612;7.210;2024-01-15T10:38:12;19.13;;;7.85;;
22439;SDS011;11387;51.612;7.210;2024-01-15T10:40:35;19.13;;;8.13;;
22439;SDS011;11387;51.612;7.210;2024-01-15T10:43:01;15.02;;;7.97;;
22439;SDS011;11387;51.612;7.210;2024-01-15T10:45:25;10.80;;;6.60;;
22439;SDS011;11387;51.612;7.210;2024-01-15T10:47:49;18.85;;;8.35;;
22439;SDS011;11387;51.612;7.210;2024-01-15T10:50:15;15.38;;;8.57;;
22439;SDS011;11387;51.612;7.210;2024-01-15T10:52:39;15.40;;;8.20;;
22439;SDS011;11387;51.612;7.210;2024-01-15T10:55:05;12.18;;;7.38;;
22439;SDS011;11387;51.612;7.210;2024-01-15T10:57:41;15.98;;;8.52;;
22439;SDS011;11387;51.612;7.210;2024-01-15T11:00:08;16.38;;;9.40;;
22439;SDS011;11387;51.612;7.210;2024-01-15T11:02:37;17.65;;;9.55;;
22439;SDS011;11387;51.612;7.210;2024-01-15T11:05:01;19.10;;;8.05;;
22439;SDS011;11387;51.612;7.210;2024-01-15T11:07:32;11.90;;;7.32;;
22439;SDS011;11387;51.612;7.210;2024-01-15T11:09:56;13.23;;;7.22;;
22439;SDS011;11387;51.612;7.210;2024-01-15T11:12:21;12.25;;;7.15;;
22439;SDS011;11387;51.612;7.210;2024-01-15T11:14:45;13.20;;;7.38;;
22439;SDS011;11387;51.612;7.210;2024-01-15T11:17:12;15.18;;;8.10;;
22439;SDS011;11387;51.612;7.210;2024-01-15T11:19:37;12.55;;;7.57;;
22439;SDS011;11387;51.612;7.210;2024-01-15T11:22:03;13.05;;;7.28;;
22439;SDS011;11387;51.612;7.210;2024-01-15T11:27:00;9.55;;;5.05;;
22439;SDS011;11387;51.612;7.210;2024-01-15T11:29:29;10.75;;;5.80;;
22439;SDS011;11387;51.612;7.210;2024-01-15T11:34:49;10.88;;;5.25;;
22439;SDS011;11387;51.612;7.210;2024-01-15T11:37:17;19.65;;;4.85;;
22439;SDS011;11387;51.612;7.210;2024-01-15T11:39:42;8.13;;;4.63;;
22439;SDS011;11387;51.612;7.210;2024-01-15T11:42:06;11.85;;;4.80;;
22439;SDS011;11387;51.612;7.210;2024-01-15T11:44:30;10.48;;;4.43;;
22439;SDS011;11387;51.612;7.210;2024-01-15T11:46:56;6.13;;;4.03;;
22439;SDS011;11387;51.612;7.210;2024-01-15T11:49:23;6.05;;;3.85;;
22439;SDS011;11387;51.612;7.210;2024-01-15T11:52:00;10.60;;;4.35;;
22439;SDS011;11387;51.612;7.210;2024-01-15T11:54:25;11.57;;;3.83;;
22439;SDS011;11387;51.612;7.210;2024-01-15T11:56:54;5.95;;;3.28;;
22439;SDS011;11387;51.612;7.210;2024-01-15T11:59:22;8.70;;;2.78;;
22439;SDS011;11387;51.612;7.210;2024-01-15T12:01:46;7.22;;;2.58;;
22439;SDS011;11387;51.612;7.210;2024-01-15T12:04:10;8.43;;;2.83;;
22439;SDS011;11387;51.612;7.210;2024-01-15T12:06:39;11.60;;;4.20;;
22439;SDS011;11387;51.612;7.210;2024-01-15T12:09:06;12.23;;;3.95;;
22439;SDS011;11387;51.612;7.210;2024-01-15T12:11:30;9.10;;;3.72;;
22439;SDS011;11387;51.612;7.210;2024-01-15T12:13:57;11.68;;;4.43;;
22439;SDS011;11387;51.612;7.210;2024-01-15T12:16:22;8.85;;;3.95;;
22439;SDS011;11387;51.612;7.210;2024-01-15T12:18:46;11.63;;;3.70;;
22439;SDS011;11387;51.612;7.210;2024-01-15T12:21:10;13.55;;;5.03;;
22439;SDS011;11387;51.612;7.210;2024-01-15T12:23:34;9.27;;;5.10;;
22439;SDS011;11387;51.612;7.210;2024-01-15T12:25:57;8.63;;;4.43;;
22439;SDS011;11387;51.612;7.210;2024-01-15T12:28:21;12.10;;;4.20;;
22439;SDS011;11387;51.612;7.210;2024-01-15T12:30:47;7.88;;;4.40;;
22439;SDS011;11387;51.612;7.210;2024-01-15T12:35:36;11.35;;;4.68;;
22439;SDS011;11387;51.612;7.210;2024-01-15T12:38:00;10.25;;;4.80;;
22439;SDS011;11387;51.612;7.210;2024-01-15T12:40:25;10.27;;;5.10;;
22439;SDS011;11387;51.612;7.210;2024-01-15T12:42:50;8.90;;;4.85;;
22439;SDS011;11387;51.612;7.210;2024-01-15T12:45:14;8.02;;;4.63;;
22439;SDS011;11387;51.612;7.210;2024-01-15T12:47:40;9.30;;;4.32;;
22439;SDS011;11387;51.612;7.210;2024-01-15T12:50:06;11.40;;;4.38;;
22439;SDS011;11387;51.612;7.210;2024-01-15T12:52:40;7.82;;;3.75;;
22439;SDS011;11387;51.612;7.210;2024-01-15T12:55:05;9.20;;;3.65;;
22439;SDS011;11387;51.612;7.210;2024-01-15T12:57:29;10.80;;;3.22;;
22439;SDS011;11387;51.612;7.210;2024-01-15T12:59:54;8.75;;;2.83;;
22439;SDS011;11387;51.612;7.210;2024-01-15T13:02:17;5.55;;;2.25;;
22439;SDS011;11387;51.612;7.210;2024-01-15T13:04:42;8.68;;;2.65;;
22439;SDS011;11387;51.612;7.210;2024-01-15T13:07:06;7.78;;;2.38;;
22439;SDS011;11387;51.612;7.210;2024-01-15T13:09:30;8.05;;;2.20;;
22439;SDS011;11387;51.612;7.210;2024-01-15T13:11:53;9.85;;;2.00;;
22439;SDS011;11387;51.612;7.210;2024-01-15T13:14:17;5.30;;;2.13;;
22439;SDS011;11387;51.612;7.210;2024-01-15T13:16:40;8.18;;;2.67;;
22439;SDS011;11387;51.612;7.210;2024-01-15T13:19:04;8.25;;;2.58;;
22439;SDS011;11387;51.612;7.210;2024-01-15T13:21:30;8.70;;;2.20;;
22439;SDS011;11387;51.612;7.210;2024-01-15T13:23:54;8.02;;;1.70;;
22439;SDS011;11387;51.612;7.210;2024-01-15T13:26:18;4.43;;;1.48;;
22439;SDS011;11387;51.612;7.210;2024-01-15T13:28:42;9.52;;;1.40;;
22439;SDS011;11387;51.612;7.210;2024-01-15T13:31:05;6.20;;;1.88;;
22439;SDS011;11387;51.612;7.210;2024-01-15T13:33:30;3.30;;;1.45;;
22439;SDS011;11387;51.612;7.210;2024-01-15T13:35:55;9.65;;;1.60;;
22439;SDS011;11387;51.612;7.210;2024-01-15T13:38:20;6.15;;;1.27;;
22439;SDS011;11387;51.612;7.210;2024-01-15T13:40:43;3.92;;;1.08;;
22439;SDS011;11387;51.612;7.210;2024-01-15T13:43:07;7.88;;;1.35;;
22439;SDS011;11387;51.612;7.210;2024-01-15T13:45:31;4.00;;;1.20;;
22439;SDS011;11387;51.612;7.210;2024-01-15T13:47:56;5.90;;;1.20;;
22439;SDS011;11387;51.612;7.210;2024-01-15T13:50:19;6.47;;;1.33;;
22439;SDS011;11387;51.612;7.210;2024-01-15T13:52:46;5.32;;;1.10;;
22439;SDS011;11387;51.612;7.210;2024-01-15T13:55:11;4.00;;;1.83;;
22439;SDS011;11387;51.612;7.210;2024-01-15T13:57:35;5.75;;;1.35;;
22439;SDS011;11387;51.612;7.210;2024-01-15T13:59:59;4.57;;;1.40;;
22439;SDS011;11387;51.612;7.210;2024-01-15T14:02:23;6.90;;;1.10;;
22439;SDS011;11387;51.612;7.210;2024-01-15T14:04:48;4.53;;;1.63;;
22439;SDS011;11387;51.612;7.210;2024-01-15T14:07:12;6.20;;;1.48;;
22439;SDS011;11387;51.612;7.210;2024-01-15T14:09:36;5.50;;;1.45;;
22439;SDS011;11387;51.612;7.210;2024-01-15T14:12:02;9.63;;;1.90;;
22439;SDS011;11387;51.612;7.210;2024-01-15T14:14:26;5.82;;;1.27;;
22439;SDS011;11387;51.612;7.210;2024-01-15T14:16:49;6.47;;;1.50;;
22439;SDS011;11387;51.612;7.210;2024-01-15T14:19:12;7.85;;;1.48;;